createdAt,value
2023-02-02T07:05:24.020Z,59.76
2023-02-02T07:07:27.010Z,59.64
2023-02-02T07:09:29.729Z,59.10
2023-02-02T07:11:39.767Z,58.95
2023-02-02T07:13:49.450Z,58.68
2023-02-02T07:15:52.337Z,58.42
2023-02-02T07:17:56.265Z,58.46
2023-02-02T07:20:00.097Z,58.34
2023-02-02T07:22:04.367Z,58.09
2023-02-02T07:24:08.328Z,57.98
2023-02-02T07:26:12.645Z,58.05
2023-02-02T07:28:15.801Z,57.81
2023-02-02T07:30:18.897Z,58.03
2023-02-02T07:32:21.653Z,57.98
2023-02-02T07:34:24.670Z,57.77
2023-02-02T07:36:27.777Z,57.84
2023-02-02T07:38:31.911Z,57.55
2023-02-02T07:40:34.850Z,57.86
2023-02-02T07:42:37.606Z,57.32
2023-02-02T07:44:40.451Z,57.63
2023-02-02T07:46:43.527Z,57.46
2023-02-02T07:48:46.499Z,57.45
2023-02-02T07:50:49.254Z,57.36
2023-02-02T07:52:52.665Z,57.19
2023-02-02T07:55:12.587Z,57.29
2023-02-02T07:57:18.185Z,57.44
2023-02-02T07:59:21.085Z,57.24
2023-02-02T08:01:27.122Z,57.29
2023-02-02T08:03:30.064Z,57.43
2023-02-02T08:05:34.984Z,57.10
2023-02-02T08:07:38.006Z,57.04
2023-02-02T08:09:40.811Z,56.81
2023-02-02T08:11:45.940Z,57.12
2023-02-02T08:13:50.580Z,57.10
2023-02-02T08:15:53.489Z,57.01
2023-02-02T08:17:56.331Z,56.94
2023-02-02T08:19:59.864Z,56.72
2023-02-02T08:22:02.915Z,56.79
2023-02-02T08:24:06.172Z,56.85
2023-02-02T08:26:11.331Z,56.87
2023-02-02T08:28:15.510Z,56.52
2023-02-02T08:30:18.854Z,56.58
2023-02-02T08:32:21.908Z,56.63
2023-02-02T08:34:24.717Z,56.72
2023-02-02T08:36:29.317Z,56.40
2023-02-02T08:38:32.178Z,56.48
2023-02-02T08:40:34.991Z,56.35
2023-02-02T08:42:37.954Z,56.41
2023-02-02T08:45:59.461Z,56.59
2023-02-02T08:47:04.785Z,56.20
2023-02-02T08:49:08.686Z,56.36
2023-02-02T08:51:14.350Z,56.36
2023-02-02T08:53:17.275Z,56.43
2023-02-02T08:55:21.040Z,56.06
2023-02-02T08:57:23.977Z,56.01
2023-02-02T08:59:26.967Z,56.13
2023-02-02T09:01:32.795Z,56.12
2023-02-02T09:03:39.292Z,56.18
2023-02-02T09:05:42.015Z,56.42
2023-02-02T09:07:47.326Z,56.16
2023-02-02T09:09:50.960Z,56.01
2023-02-02T09:11:54.785Z,55.99
2023-02-02T09:13:59.636Z,56.39
2023-02-02T09:16:02.926Z,56.19
2023-02-02T09:18:07.549Z,56.09
2023-02-02T09:20:11.658Z,56.08
2023-02-02T09:22:14.541Z,55.95
2023-02-02T09:24:17.548Z,55.91
2023-02-02T09:26:26.532Z,55.94
2023-02-02T09:28:29.504Z,55.86
2023-02-02T09:30:32.309Z,55.99
2023-02-02T09:32:35.329Z,55.84
2023-02-02T09:34:40.825Z,55.95
2023-02-02T09:36:45.631Z,55.55
2023-02-02T09:38:49.569Z,55.68
2023-02-02T09:40:52.412Z,55.43
2023-02-02T09:43:07.962Z,55.50
2023-02-02T09:45:24.297Z,55.41
2023-02-02T09:47:44.109Z,55.74
2023-02-02T09:49:58.343Z,55.54
2023-02-02T09:52:09.739Z,55.71
2023-02-02T09:54:19.070Z,55.87
2023-02-02T09:56:25.640Z,55.48
2023-02-02T09:58:32.226Z,55.75
2023-02-02T10:00:39.874Z,55.19
2023-02-02T10:02:45.797Z,55.25
2023-02-02T10:04:53.941Z,55.63
2023-02-02T10:07:00.309Z,55.09
2023-02-02T10:09:16.861Z,55.29
2023-02-02T10:11:30.918Z,55.20
2023-02-02T10:13:37.896Z,55.06
2023-02-02T10:15:45.299Z,55.20
2023-02-02T10:17:55.361Z,55.18
2023-02-02T10:20:07.703Z,55.21
2023-02-02T10:22:15.410Z,55.11
2023-02-02T10:24:21.316Z,55.06
2023-02-02T10:26:35.269Z,55.28
2023-02-02T10:28:45.269Z,55.18
2023-02-02T10:30:55.162Z,55.03
2023-02-02T10:33:06.263Z,54.92
2023-02-02T10:35:35.606Z,54.72
2023-02-02T10:37:44.202Z,54.54
2023-02-02T10:40:06.731Z,54.70
2023-02-02T10:42:19.347Z,54.81
2023-02-02T10:44:34.704Z,54.79
2023-02-02T10:46:40.865Z,54.64
2023-02-02T10:48:47.225Z,54.54
2023-02-02T10:50:55.213Z,54.66
2023-02-02T10:53:02.939Z,54.87
2023-02-02T10:55:15.925Z,54.79
2023-02-02T10:57:31.563Z,54.76
2023-02-02T10:59:40.121Z,54.41
2023-02-02T11:01:43.694Z,54.30
2023-02-02T11:03:47.836Z,54.39
2023-02-02T11:06:09.853Z,54.74
2023-02-02T11:08:16.211Z,54.56
2023-02-02T11:10:19.232Z,54.33
2023-02-02T11:12:26.829Z,54.35
2023-02-02T11:14:45.306Z,54.10
2023-02-02T11:17:02.492Z,54.26
2023-02-02T11:19:23.991Z,54.12
2023-02-02T11:21:30.245Z,54.15
2023-02-02T11:23:33.504Z,54.04
2023-02-02T11:25:39.219Z,54.02
2023-02-02T11:27:44.882Z,53.94
2023-02-02T11:29:50.756Z,53.79
2023-02-02T11:31:53.744Z,53.71
2023-02-02T11:34:11.403Z,53.76
2023-02-02T11:36:20.968Z,54.03
2023-02-02T11:38:26.278Z,53.74
2023-02-02T11:40:33.219Z,53.77
2023-02-02T11:42:35.930Z,53.70
2023-02-02T11:44:40.878Z,53.82
2023-02-02T11:46:44.736Z,53.19
2023-02-02T11:48:53.039Z,53.43
2023-02-02T11:50:57.908Z,53.24
2023-02-02T11:53:01.024Z,53.31
2023-02-02T11:55:15.646Z,53.06
2023-02-02T11:57:21.522Z,53.47
2023-02-02T11:59:33.846Z,53.23
2023-02-02T12:01:39.583Z,53.09
2023-02-02T12:03:42.517Z,53.13
2023-02-02T12:05:49.523Z,52.88
2023-02-02T12:07:52.249Z,53.30
2023-02-02T12:10:00.167Z,53.14
2023-02-02T12:12:12.498Z,52.96
2023-02-02T12:14:32.800Z,53.10
2023-02-02T12:16:53.318Z,52.92
2023-02-02T12:19:23.784Z,52.87
2023-02-02T12:21:40.321Z,53.00
2023-02-02T12:23:58.317Z,52.89
2023-02-02T12:26:30.189Z,52.86
2023-02-02T12:28:52.337Z,53.06
2023-02-02T12:31:04.318Z,52.86
2023-02-02T12:33:24.427Z,52.86
2023-02-02T12:35:39.221Z,52.81
2023-02-02T12:37:54.060Z,52.87
2023-02-02T12:40:18.304Z,52.49
2023-02-02T12:42:39.836Z,52.33
2023-02-02T12:44:56.480Z,52.34
2023-02-02T12:47:09.980Z,52.37
2023-02-02T12:49:26.204Z,52.21
2023-02-02T12:51:49.056Z,52.15
2023-02-02T12:54:34.947Z,52.23
2023-02-02T12:56:45.292Z,52.14
2023-02-02T12:58:57.658Z,52.14
2023-02-02T13:01:27.799Z,52.18
2023-02-02T13:03:45.453Z,51.99
2023-02-02T13:06:05.550Z,51.82
2023-02-02T13:08:11.853Z,52.08
2023-02-02T13:10:21.606Z,51.88
2023-02-02T13:12:25.859Z,51.78
2023-02-02T13:14:33.759Z,51.69
2023-02-02T13:16:41.797Z,51.44
2023-02-02T13:18:52.858Z,51.55
2023-02-02T13:20:59.484Z,51.41
2023-02-02T13:23:09.473Z,51.05
2023-02-02T13:25:20.549Z,51.09
2023-02-02T13:27:25.003Z,51.00
2023-02-02T13:29:39.033Z,51.32
2023-02-02T13:32:00.470Z,51.07
2023-02-02T13:34:13.410Z,50.87
2023-02-02T13:36:25.856Z,50.64
2023-02-02T13:38:31.381Z,50.71
2023-02-02T13:40:40.060Z,50.36
2023-02-02T13:42:48.915Z,50.56
2023-02-02T13:44:57.197Z,50.38
2023-02-02T13:47:07.530Z,50.14
2023-02-02T13:49:14.586Z,50.32
2023-02-02T13:51:40.609Z,50.12
2023-02-02T13:53:57.363Z,49.66
2023-02-02T13:56:17.729Z,49.64
2023-02-02T13:58:48.098Z,49.83
2023-02-02T14:00:54.017Z,50.02
2023-02-02T14:03:03.842Z,49.90
2023-02-02T14:05:09.909Z,49.49
2023-02-02T14:07:12.704Z,49.55
2023-02-02T14:09:19.735Z,49.24
2023-02-02T14:11:26.956Z,49.52
2023-02-02T14:13:53.198Z,49.27
2023-02-02T14:15:58.073Z,49.07
2023-02-02T14:18:02.318Z,49.36
2023-02-02T14:20:06.573Z,48.88
2023-02-02T14:22:21.581Z,49.05
2023-02-02T14:24:43.417Z,48.85
2023-02-02T14:26:48.527Z,49.05
2023-02-02T14:28:51.858Z,48.76
2023-02-02T14:31:36.578Z,48.77
2023-02-02T14:33:48.307Z,48.83
2023-02-02T14:36:05.215Z,48.41
2023-02-02T14:38:14.445Z,48.47
2023-02-02T14:40:30.934Z,48.60
2023-02-02T14:43:08.827Z,48.63
2023-02-02T14:45:27.089Z,48.01
2023-02-02T14:47:47.923Z,48.32
2023-02-02T14:49:57.389Z,48.30
2023-02-02T14:52:03.018Z,48.12
2023-02-02T14:54:08.637Z,48.50
2023-02-02T14:56:14.411Z,48.25
2023-02-02T14:58:24.198Z,48.23
2023-02-02T15:00:31.175Z,48.10
2023-02-02T15:02:37.201Z,47.91
2023-02-02T15:04:40.355Z,47.96
2023-02-02T15:06:45.173Z,48.05
2023-02-02T15:09:08.132Z,48.07
2023-02-02T15:11:28.960Z,47.74
2023-02-02T15:13:37.670Z,47.85
2023-02-02T15:15:43.633Z,47.52
2023-02-02T15:17:56.159Z,47.11
2023-02-02T15:20:09.456Z,47.46
2023-02-02T15:22:26.822Z,47.34
2023-02-02T15:24:33.145Z,47.16
2023-02-02T15:26:42.848Z,47.41
2023-02-02T15:28:52.289Z,46.81
2023-02-02T15:31:01.035Z,46.99
2023-02-02T15:33:09.162Z,47.00
2023-02-02T15:35:19.734Z,46.62
2023-02-02T15:37:27.748Z,46.67
2023-02-02T15:39:33.939Z,46.64
2023-02-02T15:41:42.888Z,46.37
2023-02-02T15:43:47.118Z,46.59
2023-02-02T15:45:53.989Z,46.37
2023-02-02T15:47:58.840Z,46.33
2023-02-02T15:50:02.611Z,46.38
2023-02-02T15:52:14.303Z,46.23
2023-02-02T15:54:27.032Z,46.30
2023-02-02T15:56:31.938Z,46.30
2023-02-02T15:58:39.228Z,46.17
2023-02-02T16:00:42.174Z,46.06
2023-02-02T16:02:46.960Z,46.03
2023-02-02T16:04:50.080Z,46.03
2023-02-02T16:06:53.019Z,46.04
2023-02-02T16:08:55.986Z,45.67
2023-02-02T16:11:10.050Z,46.10
2023-02-02T16:13:24.907Z,46.07
2023-02-02T16:15:29.946Z,46.22
2023-02-02T16:17:35.408Z,46.21
2023-02-02T16:19:39.111Z,46.13
2023-02-02T16:21:47.963Z,46.35
2023-02-02T16:23:52.380Z,46.17
2023-02-02T16:25:58.462Z,46.27
2023-02-02T16:28:03.455Z,46.57
2023-02-02T16:30:08.889Z,46.19
2023-02-02T16:32:26.876Z,46.59
2023-02-02T16:34:47.132Z,46.60
2023-02-02T16:37:05.508Z,46.67
2023-02-02T16:39:17.232Z,46.59
2023-02-02T16:41:28.706Z,46.64
2023-02-02T16:43:32.873Z,46.45
2023-02-02T16:45:48.473Z,46.33
2023-02-02T16:47:54.958Z,46.61
2023-02-02T16:50:20.616Z,46.24
2023-02-02T16:52:23.634Z,46.27
2023-02-02T16:54:26.315Z,46.55
2023-02-02T16:56:34.070Z,46.08
2023-02-02T16:58:45.283Z,46.17
2023-02-02T17:01:12.262Z,46.05
2023-02-02T17:03:19.186Z,45.91
2023-02-02T17:05:25.250Z,46.06
2023-02-02T17:07:29.424Z,45.86
2023-02-02T17:09:36.224Z,45.77
2023-02-02T17:11:39.047Z,45.95
2023-02-02T17:13:43.270Z,45.85
2023-02-02T17:15:53.256Z,46.04
2023-02-02T17:17:56.475Z,46.23
2023-02-02T17:19:59.230Z,45.73
2023-02-02T17:22:05.539Z,45.76
2023-02-02T17:24:10.461Z,45.70
2023-02-02T17:26:14.025Z,45.97
2023-02-02T17:28:20.056Z,46.23
2023-02-02T17:30:24.583Z,45.90
2023-02-02T17:32:27.324Z,45.80
2023-02-02T17:34:30.968Z,45.99
2023-02-02T17:36:33.627Z,45.62
2023-02-02T17:38:36.361Z,46.08
2023-02-02T17:40:39.428Z,46.04
2023-02-02T17:42:44.036Z,45.98
2023-02-02T17:44:46.929Z,45.98
2023-02-02T17:46:51.087Z,45.94
2023-02-02T17:48:53.787Z,45.91
2023-02-02T17:50:56.564Z,45.85
2023-02-02T17:52:59.981Z,45.98
2023-02-02T17:55:02.970Z,45.92
2023-02-02T17:57:05.744Z,45.90
2023-02-02T17:59:08.450Z,45.78
2023-02-02T18:01:12.560Z,46.21
2023-02-02T18:03:22.191Z,45.71
2023-02-02T18:05:25.508Z,46.11
2023-02-02T18:07:28.540Z,46.02
2023-02-02T18:09:34.038Z,45.88
2023-02-02T18:11:36.786Z,46.00
2023-02-02T18:13:39.569Z,45.87
2023-02-02T18:15:42.417Z,46.15
2023-02-02T18:17:47.174Z,45.89
2023-02-02T18:19:52.957Z,45.98
2023-02-02T18:21:55.624Z,46.31
2023-02-02T18:23:58.417Z,45.92
2023-02-02T18:26:09.650Z,45.89
2023-02-02T18:28:15.189Z,46.15
2023-02-02T18:30:19.969Z,46.24
2023-02-02T18:32:22.906Z,45.78
2023-02-02T18:34:25.637Z,45.99
2023-02-02T18:36:29.739Z,46.00
2023-02-02T18:38:32.465Z,45.95
2023-02-02T18:40:35.239Z,46.19
2023-02-02T18:42:38.036Z,46.13
2023-02-02T18:44:42.854Z,45.95
2023-02-02T18:46:45.623Z,46.25
2023-02-02T18:48:48.330Z,46.18
2023-02-02T18:50:51.006Z,46.11
2023-02-02T18:52:56.635Z,46.12
2023-02-02T18:54:59.500Z,46.17
2023-02-02T18:57:02.325Z,46.19
2023-02-02T18:59:06.978Z,46.15
2023-02-02T19:01:10.635Z,46.30
2023-02-02T19:03:13.846Z,46.42
2023-02-02T19:05:34.151Z,46.24
2023-02-02T19:07:54.546Z,46.71
2023-02-02T19:09:59.327Z,46.38
2023-02-02T19:12:02.759Z,46.39
2023-02-02T19:14:12.268Z,46.44
2023-02-02T19:16:21.970Z,46.21
2023-02-02T19:18:25.830Z,46.38
2023-02-02T19:20:30.371Z,46.36
2023-02-02T19:22:33.562Z,46.32
2023-02-02T19:24:39.749Z,46.27
2023-02-02T19:26:47.056Z,46.41
2023-02-02T19:28:50.052Z,46.15
2023-02-02T19:30:54.484Z,46.36
2023-02-02T19:32:57.233Z,46.64
2023-02-02T19:35:01.463Z,46.43
2023-02-02T19:37:19.646Z,46.37
2023-02-02T19:39:28.209Z,46.33
2023-02-02T19:41:31.380Z,46.43
2023-02-02T19:43:36.476Z,46.56
2023-02-02T19:45:41.207Z,46.48
2023-02-02T19:47:45.353Z,46.40
2023-02-02T19:49:48.075Z,46.20
2023-02-02T19:51:54.077Z,46.64
2023-02-02T19:54:01.592Z,46.40
2023-02-02T19:56:22.033Z,46.54
2023-02-02T19:58:28.150Z,46.17
2023-02-02T20:00:33.555Z,46.20
2023-02-02T20:02:44.767Z,46.18
2023-02-02T20:04:48.161Z,46.41
2023-02-02T20:06:59.080Z,46.48
2023-02-02T20:09:10.951Z,46.34
2023-02-02T20:11:31.826Z,46.29
2023-02-02T20:13:39.754Z,46.36
2023-02-02T20:15:44.242Z,46.16
2023-02-02T20:17:47.087Z,46.57
2023-02-02T20:19:49.831Z,46.29
2023-02-02T20:21:53.903Z,46.57
2023-02-02T20:23:56.586Z,46.38
2023-02-02T20:25:59.619Z,46.52
2023-02-02T20:28:09.442Z,46.50
2023-02-02T20:30:24.997Z,46.55
2023-02-02T20:32:38.505Z,46.47
2023-02-02T20:34:44.437Z,46.57
2023-02-02T20:36:48.133Z,46.66
2023-02-02T20:38:50.852Z,46.51
2023-02-02T20:40:53.905Z,46.71
2023-02-02T20:42:58.171Z,46.40
2023-02-02T20:45:00.928Z,46.87
2023-02-02T20:47:04.835Z,47.01
2023-02-02T20:49:08.864Z,46.66
2023-02-02T20:51:11.874Z,46.63
2023-02-02T20:53:16.401Z,46.78
2023-02-02T20:55:19.146Z,46.73
2023-02-02T20:57:21.871Z,46.85
2023-02-02T20:59:25.317Z,47.06
2023-02-02T21:01:28.657Z,46.68
2023-02-02T21:03:31.360Z,46.98
2023-02-02T21:05:38.880Z,46.79
2023-02-02T21:07:41.699Z,47.03
2023-02-02T21:09:44.436Z,46.69
2023-02-02T21:11:47.853Z,46.96
2023-02-02T21:13:50.813Z,46.76
2023-02-02T21:15:53.681Z,46.96
2023-02-02T21:17:56.431Z,46.83
2023-02-02T21:19:59.247Z,46.88
2023-02-02T21:22:03.442Z,46.72
2023-02-02T21:24:07.393Z,46.76
2023-02-02T21:26:10.165Z,47.12
2023-02-02T21:28:15.345Z,46.86
2023-02-02T21:30:18.626Z,46.73
2023-02-02T21:32:21.289Z,46.87
2023-02-02T21:34:24.009Z,47.02
2023-02-02T21:36:33.562Z,47.15
2023-02-02T21:38:37.668Z,47.20
2023-02-02T21:40:41.314Z,47.08
2023-02-02T21:42:49.334Z,46.81
2023-02-02T21:44:56.175Z,46.81
2023-02-02T21:46:59.194Z,46.98
2023-02-02T21:49:02.553Z,47.22
